sensor_id;sensor_type;location;lat;lon;timestamp;P1;durP1;ratioP1;P2;durP2;ratioP2
58294;SDS011;45705;55.592;37.460;2022-10-22T00:01:19;16.92;;;9.65;;
58294;SDS011;45705;55.592;37.460;2022-10-22T00:03:44;15.55;;;9.90;;
58294;SDS011;45705;55.592;37.460;2022-10-22T00:06:10;15.02;;;9.05;;
58294;SDS011;45705;55.592;37.460;2022-10-22T00:08:36;17.63;;;8.75;;
58294;SDS011;45705;55.592;37.460;2022-10-22T00:11:09;17.15;;;9.73;;
58294;SDS011;45705;55.592;37.460;2022-10-22T00:13:39;12.35;;;8.40;;
58294;SDS011;45705;55.592;37.460;2022-10-22T00:16:05;14.48;;;9.05;;
58294;SDS011;45705;55.592;37.460;2022-10-22T00:18:31;14.27;;;8.68;;
58294;SDS011;45705;55.592;37.460;2022-10-22T00:20:57;13.40;;;8.80;;
58294;SDS011;45705;55.592;37.460;2022-10-22T00:23:23;14.88;;;9.32;;
58294;SDS011;45705;55.592;37.460;2022-10-22T00:25:48;16.80;;;9.52;;
58294;SDS011;45705;55.592;37.460;2022-10-22T00:28:14;16.10;;;9.40;;
58294;SDS011;45705;55.592;37.460;2022-10-22T00:30:40;15.25;;;8.93;;
58294;SDS011;45705;55.592;37.460;2022-10-22T00:33:05;13.75;;;8.95;;
58294;SDS011;45705;55.592;37.460;2022-10-22T00:35:31;18.45;;;9.20;;
58294;SDS011;45705;55.592;37.460;2022-10-22T00:37:57;14.07;;;9.20;;
58294;SDS011;45705;55.592;37.460;2022-10-22T00:40:23;13.27;;;8.45;;
58294;SDS011;45705;55.592;37.460;2022-10-22T00:42:49;13.60;;;8.20;;
58294;SDS011;45705;55.592;37.460;2022-10-22T00:45:20;17.05;;;8.20;;
58294;SDS011;45705;55.592;37.460;2022-10-22T00:47:55;17.48;;;8.23;;
58294;SDS011;45705;55.592;37.460;2022-10-22T00:50:23;15.55;;;8.77;;
58294;SDS011;45705;55.592;37.460;2022-10-22T00:52:51;17.45;;;7.82;;
58294;SDS011;45705;55.592;37.460;2022-10-22T00:55:18;14.85;;;8.25;;
58294;SDS011;45705;55.592;37.460;2022-10-22T00:57:45;14.45;;;8.45;;
58294;SDS011;45705;55.592;37.460;2022-10-22T01:00:12;13.25;;;8.20;;
58294;SDS011;45705;55.592;37.460;2022-10-22T01:02:38;12.93;;;8.35;;
58294;SDS011;45705;55.592;37.460;2022-10-22T01:05:04;13.52;;;8.45;;
58294;SDS011;45705;55.592;37.460;2022-10-22T01:07:30;15.65;;;8.80;;
58294;SDS011;45705;55.592;37.460;2022-10-22T01:15:59;15.18;;;8.98;;
58294;SDS011;45705;55.592;37.460;2022-10-22T01:21:47;14.25;;;8.77;;
58294;SDS011;45705;55.592;37.460;2022-10-22T01:26:41;16.00;;;9.18;;
58294;SDS011;45705;55.592;37.460;2022-10-22T01:29:09;13.30;;;8.82;;
58294;SDS011;45705;55.592;37.460;2022-10-22T01:31:41;16.98;;;9.57;;
58294;SDS011;45705;55.592;37.460;2022-10-22T01:34:11;20.90;;;8.52;;
58294;SDS011;45705;55.592;37.460;2022-10-22T01:36:40;13.70;;;8.90;;
58294;SDS011;45705;55.592;37.460;2022-10-22T01:39:08;13.70;;;9.15;;
58294;SDS011;45705;55.592;37.460;2022-10-22T01:41:37;15.57;;;9.32;;
58294;SDS011;45705;55.592;37.460;2022-10-22T01:44:04;13.10;;;9.07;;
58294;SDS011;45705;55.592;37.460;2022-10-22T01:46:30;15.07;;;8.65;;
58294;SDS011;45705;55.592;37.460;2022-10-22T01:49:14;16.15;;;9.82;;
58294;SDS011;45705;55.592;37.460;2022-10-22T01:51:58;13.68;;;9.00;;
58294;SDS011;45705;55.592;37.460;2022-10-22T01:57:13;14.23;;;8.70;;
58294;SDS011;45705;55.592;37.460;2022-10-22T02:02:41;16.55;;;9.10;;
58294;SDS011;45705;55.592;37.460;2022-10-22T02:05:49;15.13;;;9.25;;
58294;SDS011;45705;55.592;37.460;2022-10-22T02:08:22;13.50;;;8.90;;
58294;SDS011;45705;55.592;37.460;2022-10-22T02:10:51;14.95;;;9.93;;
58294;SDS011;45705;55.592;37.460;2022-10-22T02:13:38;14.60;;;8.95;;
58294;SDS011;45705;55.592;37.460;2022-10-22T02:16:08;16.90;;;9.57;;
58294;SDS011;45705;55.592;37.460;2022-10-22T02:18:37;16.45;;;9.52;;
58294;SDS011;45705;55.592;37.460;2022-10-22T02:21:07;14.48;;;8.60;;
58294;SDS011;45705;55.592;37.460;2022-10-22T02:23:33;13.85;;;8.85;;
58294;SDS011;45705;55.592;37.460;2022-10-22T02:26:01;21.42;;;10.00;;
58294;SDS011;45705;55.592;37.460;2022-10-22T02:31:00;15.63;;;10.30;;
58294;SDS011;45705;55.592;37.460;2022-10-22T02:33:51;16.63;;;9.68;;
58294;SDS011;45705;55.592;37.460;2022-10-22T02:36:20;13.98;;;9.88;;
58294;SDS011;45705;55.592;37.460;2022-10-22T02:38:48;17.05;;;9.95;;
58294;SDS011;45705;55.592;37.460;2022-10-22T02:41:15;16.00;;;9.88;;
58294;SDS011;45705;55.592;37.460;2022-10-22T02:43:43;14.43;;;9.10;;
58294;SDS011;45705;55.592;37.460;2022-10-22T02:46:13;15.40;;;9.80;;
58294;SDS011;45705;55.592;37.460;2022-10-22T02:48:39;13.85;;;9.20;;
58294;SDS011;45705;55.592;37.460;2022-10-22T02:51:05;16.40;;;9.82;;
58294;SDS011;45705;55.592;37.460;2022-10-22T02:53:31;18.65;;;10.60;;
58294;SDS011;45705;55.592;37.460;2022-10-22T02:55:57;13.55;;;9.50;;
58294;SDS011;45705;55.592;37.460;2022-10-22T02:58:23;16.77;;;9.35;;
58294;SDS011;45705;55.592;37.460;2022-10-22T03:00:49;17.23;;;10.27;;
58294;SDS011;45705;55.592;37.460;2022-10-22T03:03:14;16.63;;;9.52;;
58294;SDS011;45705;55.592;37.460;2022-10-22T03:05:40;15.32;;;9.18;;
58294;SDS011;45705;55.592;37.460;2022-10-22T03:08:06;14.57;;;9.63;;
58294;SDS011;45705;55.592;37.460;2022-10-22T03:10:31;18.83;;;11.38;;
58294;SDS011;45705;55.592;37.460;2022-10-22T03:12:57;18.20;;;10.48;;
58294;SDS011;45705;55.592;37.460;2022-10-22T03:15:23;16.58;;;9.77;;
58294;SDS011;45705;55.592;37.460;2022-10-22T03:17:48;17.42;;;10.65;;
58294;SDS011;45705;55.592;37.460;2022-10-22T03:20:14;20.95;;;10.60;;
58294;SDS011;45705;55.592;37.460;2022-10-22T03:22:40;15.88;;;10.20;;
58294;SDS011;45705;55.592;37.460;2022-10-22T03:25:08;16.60;;;10.00;;
58294;SDS011;45705;55.592;37.460;2022-10-22T03:27:38;18.95;;;10.02;;
58294;SDS011;45705;55.592;37.460;2022-10-22T03:30:06;15.77;;;9.85;;
58294;SDS011;45705;55.592;37.460;2022-10-22T03:32:32;16.27;;;10.45;;
58294;SDS011;45705;55.592;37.460;2022-10-22T03:34:57;15.30;;;9.75;;
58294;SDS011;45705;55.592;37.460;2022-10-22T03:37:24;15.90;;;9.27;;
58294;SDS011;45705;55.592;37.460;2022-10-22T03:39:51;18.05;;;9.98;;
58294;SDS011;45705;55.592;37.460;2022-10-22T03:42:17;15.23;;;9.30;;
58294;SDS011;45705;55.592;37.460;2022-10-22T03:44:44;17.63;;;9.95;;
58294;SDS011;45705;55.592;37.460;2022-10-22T03:47:09;14.57;;;9.23;;
58294;SDS011;45705;55.592;37.460;2022-10-22T03:49:35;13.35;;;9.05;;
58294;SDS011;45705;55.592;37.460;2022-10-22T03:52:05;15.25;;;9.75;;
58294;SDS011;45705;55.592;37.460;2022-10-22T03:54:35;16.55;;;10.27;;
58294;SDS011;45705;55.592;37.460;2022-10-22T03:57:02;14.60;;;9.20;;
58294;SDS011;45705;55.592;37.460;2022-10-22T03:59:33;15.20;;;9.68;;
58294;SDS011;45705;55.592;37.460;2022-10-22T04:02:03;14.90;;;9.25;;
58294;SDS011;45705;55.592;37.460;2022-10-22T04:04:29;16.98;;;9.02;;
58294;SDS011;45705;55.592;37.460;2022-10-22T04:06:55;14.15;;;9.25;;
58294;SDS011;45705;55.592;37.460;2022-10-22T04:09:21;14.95;;;8.98;;
58294;SDS011;45705;55.592;37.460;2022-10-22T04:11:47;14.05;;;9.07;;
58294;SDS011;45705;55.592;37.460;2022-10-22T04:14:13;13.82;;;8.80;;
58294;SDS011;45705;55.592;37.460;2022-10-22T04:16:39;17.23;;;9.68;;
58294;SDS011;45705;55.592;37.460;2022-10-22T04:19:05;13.60;;;8.48;;
58294;SDS011;45705;55.592;37.460;2022-10-22T04:21:31;16.13;;;8.32;;
58294;SDS011;45705;55.592;37.460;2022-10-22T04:23:57;14.52;;;8.70;;
58294;SDS011;45705;55.592;37.460;2022-10-22T04:26:23;17.40;;;8.63;;
58294;SDS011;45705;55.592;37.460;2022-10-22T04:28:50;18.52;;;9.15;;
58294;SDS011;45705;55.592;37.460;2022-10-22T04:31:18;13.80;;;8.73;;
58294;SDS011;45705;55.592;37.460;2022-10-22T04:33:45;13.57;;;8.80;;
58294;SDS011;45705;55.592;37.460;2022-10-22T04:36:12;14.25;;;7.95;;
58294;SDS011;45705;55.592;37.460;2022-10-22T04:38:41;15.05;;;8.52;;
58294;SDS011;45705;55.592;37.460;2022-10-22T04:41:13;14.95;;;8.60;;
58294;SDS011;45705;55.592;37.460;2022-10-22T04:43:40;14.90;;;8.80;;
58294;SDS011;45705;55.592;37.460;2022-10-22T04:46:07;17.20;;;8.73;;
58294;SDS011;45705;55.592;37.460;2022-10-22T04:48:37;13.95;;;8.48;;
58294;SDS011;45705;55.592;37.460;2022-10-22T04:51:04;17.30;;;8.68;;
58294;SDS011;45705;55.592;37.460;2022-10-22T04:53:32;13.80;;;8.43;;
58294;SDS011;45705;55.592;37.460;2022-10-22T04:58:46;12.05;;;7.28;;
58294;SDS011;45705;55.592;37.460;2022-10-22T05:01:14;13.35;;;8.13;;
58294;SDS011;45705;55.592;37.460;2022-10-22T05:03:42;11.77;;;7.38;;
58294;SDS011;45705;55.592;37.460;2022-10-22T05:06:08;11.45;;;7.95;;
58294;SDS011;45705;55.592;37.460;2022-10-22T05:08:34;12.35;;;7.70;;
58294;SDS011;45705;55.592;37.460;2022-10-22T05:11:00;11.95;;;7.97;;
58294;SDS011;45705;55.592;37.460;2022-10-22T05:13:34;13.93;;;7.97;;
58294;SDS011;45705;55.592;37.460;2022-10-22T05:16:00;15.23;;;7.85;;
58294;SDS011;45705;55.592;37.460;2022-10-22T05:18:26;13.65;;;8.00;;
58294;SDS011;45705;55.592;37.460;2022-10-22T05:20:52;14.00;;;8.23;;
58294;SDS011;45705;55.592;37.460;2022-10-22T05:23:17;14.30;;;8.02;;
58294;SDS011;45705;55.592;37.460;2022-10-22T05:25:43;10.40;;;7.47;;
58294;SDS011;45705;55.592;37.460;2022-10-22T05:28:09;11.98;;;7.10;;
58294;SDS011;45705;55.592;37.460;2022-10-22T05:30:34;10.27;;;7.13;;
58294;SDS011;45705;55.592;37.460;2022-10-22T05:33:00;11.70;;;6.75;;
58294;SDS011;45705;55.592;37.460;2022-10-22T05:35:26;12.55;;;7.60;;
58294;SDS011;45705;55.592;37.460;2022-10-22T05:37:51;13.25;;;7.38;;
58294;SDS011;45705;55.592;37.460;2022-10-22T05:40:17;11.02;;;7.07;;
58294;SDS011;45705;55.592;37.460;2022-10-22T05:42:43;9.27;;;6.70;;
58294;SDS011;45705;55.592;37.460;2022-10-22T05:45:08;11.35;;;6.70;;
58294;SDS011;45705;55.592;37.460;2022-10-22T05:47:34;10.05;;;6.50;;
58294;SDS011;45705;55.592;37.460;2022-10-22T05:50:00;11.20;;;7.10;;
58294;SDS011;45705;55.592;37.460;2022-10-22T05:52:25;9.38;;;6.38;;
58294;SDS011;45705;55.592;37.460;2022-10-22T05:54:51;9.63;;;6.65;;
58294;SDS011;45705;55.592;37.460;2022-10-22T05:57:17;10.02;;;6.85;;
58294;SDS011;45705;55.592;37.460;2022-10-22T05:59:42;9.10;;;7.15;;
58294;SDS011;45705;55.592;37.460;2022-10-22T06:02:08;13.98;;;7.00;;
58294;SDS011;45705;55.592;37.460;2022-10-22T06:04:34;11.25;;;5.72;;
58294;SDS011;45705;55.592;37.460;2022-10-22T06:07:00;11.75;;;7.03;;
58294;SDS011;45705;55.592;37.460;2022-10-22T06:11:57;9.65;;;6.55;;
58294;SDS011;45705;55.592;37.460;2022-10-22T06:14:23;11.27;;;7.07;;
58294;SDS011;45705;55.592;37.460;2022-10-22T06:16:50;13.10;;;6.10;;
58294;SDS011;45705;55.592;37.460;2022-10-22T06:19:17;15.32;;;7.15;;
58294;SDS011;45705;55.592;37.460;2022-10-22T06:21:45;8.98;;;5.95;;
58294;SDS011;45705;55.592;37.460;2022-10-22T06:24:12;10.00;;;6.30;;
58294;SDS011;45705;55.592;37.460;2022-10-22T06:26:38;13.60;;;6.80;;
58294;SDS011;45705;55.592;37.460;2022-10-22T06:29:04;12.32;;;6.90;;
58294;SDS011;45705;55.592;37.460;2022-10-22T06:31:30;12.63;;;7.30;;
58294;SDS011;45705;55.592;37.460;2022-10-22T06:34:10;10.40;;;7.18;;
58294;SDS011;45705;55.592;37.460;2022-10-22T06:36:38;12.55;;;7.13;;
58294;SDS011;45705;55.592;37.460;2022-10-22T06:39:06;19.05;;;7.70;;
58294;SDS011;45705;55.592;37.460;2022-10-22T06:41:35;12.20;;;6.68;;
58294;SDS011;45705;55.592;37.460;2022-10-22T06:44:00;13.13;;;7.20;;
58294;SDS011;45705;55.592;37.460;2022-10-22T06:46:26;13.77;;;7.03;;
58294;SDS011;45705;55.592;37.460;2022-10-22T06:48:53;13.77;;;7.43;;
58294;SDS011;45705;55.592;37.460;2022-10-22T06:51:20;16.55;;;7.38;;
58294;SDS011;45705;55.592;37.460;2022-10-22T06:53:46;11.45;;;6.35;;
58294;SDS011;45705;55.592;37.460;2022-10-22T06:56:14;10.27;;;6.60;;
58294;SDS011;45705;55.592;37.460;2022-10-22T06:58:47;9.10;;;6.03;;
58294;SDS011;45705;55.592;37.460;2022-10-22T07:01:15;10.75;;;6.28;;
58294;SDS011;45705;55.592;37.460;2022-10-22T07:03:43;9.05;;;5.90;;
58294;SDS011;45705;55.592;37.460;2022-10-22T07:06:10;8.98;;;6.30;;
58294;SDS011;45705;55.592;37.460;2022-10-22T07:08:38;15.75;;;7.40;;
58294;SDS011;45705;55.592;37.460;2022-10-22T07:11:09;10.02;;;6.85;;
58294;SDS011;45705;55.592;37.460;2022-10-22T07:13:45;17.38;;;8.95;;
58294;SDS011;45705;55.592;37.460;2022-10-22T07:16:12;15.70;;;9.57;;
58294;SDS011;45705;55.592;37.460;2022-10-22T07:18:39;14.85;;;10.15;;
58294;SDS011;45705;55.592;37.460;2022-10-22T07:21:06;16.73;;;10.75;;
58294;SDS011;45705;55.592;37.460;2022-10-22T07:23:33;14.45;;;10.40;;
58294;SDS011;45705;55.592;37.460;2022-10-22T07:25:59;16.70;;;11.48;;
58294;SDS011;45705;55.592;37.460;2022-10-22T07:28:29;14.80;;;10.68;;
58294;SDS011;45705;55.592;37.460;2022-10-22T07:30:54;14.27;;;8.80;;
58294;SDS011;45705;55.592;37.460;2022-10-22T07:33:20;11.68;;;8.50;;
58294;SDS011;45705;55.592;37.460;2022-10-22T07:35:46;9.55;;;7.07;;
58294;SDS011;45705;55.592;37.460;2022-10-22T07:38:12;8.75;;;5.65;;
58294;SDS011;45705;55.592;37.460;2022-10-22T07:40:38;8.07;;;5.82;;
58294;SDS011;45705;55.592;37.460;2022-10-22T07:43:03;8.63;;;5.90;;
58294;SDS011;45705;55.592;37.460;2022-10-22T07:45:29;7.72;;;5.60;;
58294;SDS011;45705;55.592;37.460;2022-10-22T07:47:55;7.80;;;5.65;;
58294;SDS011;45705;55.592;37.460;2022-10-22T07:50:21;11.40;;;6.18;;
58294;SDS011;45705;55.592;37.460;2022-10-22T07:52:46;10.13;;;5.60;;
58294;SDS011;45705;55.592;37.460;2022-10-22T07:55:12;7.38;;;5.13;;
58294;SDS011;45705;55.592;37.460;2022-10-22T07:57:38;5.97;;;4.63;;
58294;SDS011;45705;55.592;37.460;2022-10-22T08:00:05;9.20;;;4.50;;
58294;SDS011;45705;55.592;37.460;2022-10-22T08:02:37;10.38;;;5.43;;
58294;SDS011;45705;55.592;37.460;2022-10-22T08:05:03;7.82;;;4.60;;
58294;SDS011;45705;55.592;37.460;2022-10-22T08:07:29;6.40;;;4.53;;
58294;SDS011;45705;55.592;37.460;2022-10-22T08:09:55;8.73;;;4.57;;
58294;SDS011;45705;55.592;37.460;2022-10-22T08:12:20;6.50;;;4.53;;
58294;SDS011;45705;55.592;37.460;2022-10-22T08:14:46;6.90;;;4.40;;
58294;SDS011;45705;55.592;37.460;2022-10-22T08:17:12;7.03;;;4.70;;
58294;SDS011;45705;55.592;37.460;2022-10-22T08:19:37;5.97;;;4.45;;
58294;SDS011;45705;55.592;37.460;2022-10-22T08:22:03;8.77;;;4.55;;
58294;SDS011;45705;55.592;37.460;2022-10-22T08:24:29;11.35;;;5.03;;
58294;SDS011;45705;55.592;37.460;2022-10-22T08:26:54;7.57;;;4.55;;
58294;SDS011;45705;55.592;37.460;2022-10-22T08:29:21;7.93;;;4.80;;
58294;SDS011;45705;55.592;37.460;2022-10-22T08:31:47;8.95;;;4.32;;
58294;SDS011;45705;55.592;37.460;2022-10-22T08:34:14;7.68;;;4.45;;
58294;SDS011;45705;55.592;37.460;2022-10-22T08:36:40;7.70;;;4.40;;
58294;SDS011;45705;55.592;37.460;2022-10-22T08:39:06;8.02;;;4.82;;
58294;SDS011;45705;55.592;37.460;2022-10-22T08:41:33;7.40;;;4.10;;
58294;SDS011;45705;55.592;37.460;2022-10-22T08:44:16;5.70;;;4.55;;
58294;SDS011;45705;55.592;37.460;2022-10-22T08:49:43;7.00;;;4.63;;
58294;SDS011;45705;55.592;37.460;2022-10-22T08:52:11;11.60;;;4.93;;
58294;SDS011;45705;55.592;37.460;2022-10-22T09:08:34;6.50;;;3.50;;
58294;SDS011;45705;55.592;37.460;2022-10-22T09:13:39;7.55;;;4.07;;
58294;SDS011;45705;55.592;37.460;2022-10-22T09:21:54;8.00;;;3.70;;
58294;SDS011;45705;55.592;37.460;2022-10-22T09:24:30;5.97;;;4.43;;
58294;SDS011;45705;55.592;37.460;2022-10-22T09:27:06;7.15;;;3.63;;
58294;SDS011;45705;55.592;37.460;2022-10-22T09:29:54;6.45;;;3.40;;
58294;SDS011;45705;55.592;37.460;2022-10-22T09:32:20;6.65;;;3.42;;
58294;SDS011;45705;55.592;37.460;2022-10-22T09:34:47;4.07;;;2.85;;
58294;SDS011;45705;55.592;37.460;2022-10-22T09:37:15;5.75;;;3.10;;
58294;SDS011;45705;55.592;37.460;2022-10-22T09:39:44;4.63;;;3.00;;
58294;SDS011;45705;55.592;37.460;2022-10-22T09:42:14;8.63;;;3.40;;
58294;SDS011;45705;55.592;37.460;2022-10-22T09:44:41;7.30;;;3.17;;
58294;SDS011;45705;55.592;37.460;2022-10-22T09:47:41;5.28;;;3.13;;
58294;SDS011;45705;55.592;37.460;2022-10-22T09:52:44;4.22;;;2.58;;
58294;SDS011;45705;55.592;37.460;2022-10-22T09:55:15;3.67;;;2.50;;
58294;SDS011;45705;55.592;37.460;2022-10-22T09:57:42;5.57;;;2.95;;
58294;SDS011;45705;55.592;37.460;2022-10-22T10:00:09;4.65;;;2.08;;
58294;SDS011;45705;55.592;37.460;2022-10-22T10:02:38;7.55;;;3.10;;
58294;SDS011;45705;55.592;37.460;2022-10-22T10:05:07;6.05;;;2.60;;
58294;SDS011;45705;55.592;37.460;2022-10-22T10:07:34;4.15;;;2.50;;
58294;SDS011;45705;55.592;37.460;2022-10-22T10:10:00;5.85;;;2.65;;
58294;SDS011;45705;55.592;37.460;2022-10-22T10:21:03;4.22;;;2.33;;
58294;SDS011;45705;55.592;37.460;2022-10-22T10:26:21;3.22;;;2.20;;
58294;SDS011;45705;55.592;37.460;2022-10-22T10:29:16;4.57;;;2.22;;
58294;SDS011;45705;55.592;37.460;2022-10-22T10:37:16;4.40;;;2.20;;
58294;SDS011;45705;55.592;37.460;2022-10-22T10:42:48;12.23;;;2.65;;
58294;SDS011;45705;55.592;37.460;2022-10-22T10:45:36;6.00;;;2.40;;
58294;SDS011;45705;55.592;37.460;2022-10-22T11:04:51;8.43;;;3.53;;
58294;SDS011;45705;55.592;37.460;2022-10-22T11:07:44;7.05;;;2.95;;
58294;SDS011;45705;55.592;37.460;2022-10-22T11:13:37;3.85;;;2.45;;
58294;SDS011;45705;55.592;37.460;2022-10-22T11:16:15;5.15;;;2.45;;
58294;SDS011;45705;55.592;37.460;2022-10-22T11:21:28;4.03;;;2.20;;
58294;SDS011;45705;55.592;37.460;2022-10-22T11:24:02;4.25;;;2.70;;
58294;SDS011;45705;55.592;37.460;2022-10-22T11:29:34;4.28;;;2.22;;
58294;SDS011;45705;55.592;37.460;2022-10-22T11:32:12;2.88;;;2.13;;
58294;SDS011;45705;55.592;37.460;2022-10-22T11:35:15;6.00;;;2.92;;
58294;SDS011;45705;55.592;37.460;2022-10-22T11:37:37;4.57;;;2.63;;
58294;SDS011;45705;55.592;37.460;2022-10-22T11:40:05;3.65;;;2.50;;
58294;SDS011;45705;55.592;37.460;2022-10-22T11:42:43;9.05;;;2.55;;
58294;SDS011;45705;55.592;37.460;2022-10-22T11:50:23;5.10;;;2.38;;
58294;SDS011;45705;55.592;37.460;2022-10-22T11:55:30;4.15;;;2.40;;
58294;SDS011;45705;55.592;37.460;2022-10-22T11:58:01;5.68;;;3.65;;
58294;SDS011;45705;55.592;37.460;2022-10-22T12:11:24;4.18;;;2.40;;
58294;SDS011;45705;55.592;37.460;2022-10-22T12:16:27;6.68;;;2.90;;
58294;SDS011;45705;55.592;37.460;2022-10-22T12:19:01;5.38;;;3.35;;
58294;SDS011;45705;55.592;37.460;2022-10-22T12:21:32;4.65;;;3.05;;
58294;SDS011;45705;55.592;37.460;2022-10-22T12:23:59;5.10;;;3.00;;
58294;SDS011;45705;55.592;37.460;2022-10-22T12:26:28;3.90;;;3.00;;
58294;SDS011;45705;55.592;37.460;2022-10-22T12:28:55;9.68;;;3.65;;
58294;SDS011;45705;55.592;37.460;2022-10-22T12:31:25;5.05;;;3.00;;
58294;SDS011;45705;55.592;37.460;2022-10-22T12:33:55;5.10;;;3.35;;
58294;SDS011;45705;55.592;37.460;2022-10-22T12:36:25;6.68;;;3.85;;
58294;SDS011;45705;55.592;37.460;2022-10-22T12:38:52;5.40;;;4.18;;
58294;SDS011;45705;55.592;37.460;2022-10-22T12:41:18;5.55;;;3.92;;
58294;SDS011;45705;55.592;37.460;2022-10-22T12:43:46;4.67;;;3.40;;
58294;SDS011;45705;55.592;37.460;2022-10-22T12:46:12;5.57;;;3.88;;
58294;SDS011;45705;55.592;37.460;2022-10-22T12:48:43;11.52;;;4.40;;
58294;SDS011;45705;55.592;37.460;2022-10-22T12:51:16;5.93;;;3.75;;
58294;SDS011;45705;55.592;37.460;2022-10-22T12:56:14;10.77;;;4.70;;
58294;SDS011;45705;55.592;37.460;2022-10-22T12:58:46;6.97;;;4.95;;
58294;SDS011;45705;55.592;37.460;2022-10-22T13:01:16;7.05;;;3.78;;
58294;SDS011;45705;55.592;37.460;2022-10-22T13:03:49;6.43;;;3.83;;
58294;SDS011;45705;55.592;37.460;2022-10-22T13:06:27;11.32;;;4.07;;
58294;SDS011;45705;55.592;37.460;2022-10-22T13:08:57;8.82;;;3.88;;
58294;SDS011;45705;55.592;37.460;2022-10-22T13:11:38;9.18;;;4.75;;
58294;SDS011;45705;55.592;37.460;2022-10-22T13:14:12;9.05;;;4.68;;
58294;SDS011;45705;55.592;37.460;2022-10-22T13:19:39;9.40;;;5.20;;
58294;SDS011;45705;55.592;37.460;2022-10-22T13:24:58;14.63;;;5.82;;
58294;SDS011;45705;55.592;37.460;2022-10-22T13:27:29;8.77;;;5.35;;
58294;SDS011;45705;55.592;37.460;2022-10-22T13:29:56;10.70;;;5.80;;
58294;SDS011;45705;55.592;37.460;2022-10-22T13:32:31;15.38;;;6.20;;
58294;SDS011;45705;55.592;37.460;2022-10-22T13:34:59;7.93;;;5.22;;
58294;SDS011;45705;55.592;37.460;2022-10-22T13:37:27;10.80;;;6.25;;
58294;SDS011;45705;55.592;37.460;2022-10-22T13:39:55;14.50;;;6.45;;
58294;SDS011;45705;55.592;37.460;2022-10-22T13:42:21;12.70;;;6.43;;
58294;SDS011;45705;55.592;37.460;2022-10-22T13:44:47;15.77;;;6.93;;
58294;SDS011;45705;55.592;37.460;2022-10-22T13:47:33;10.02;;;5.68;;
58294;SDS011;45705;55.592;37.460;2022-10-22T13:49:59;12.73;;;5.63;;
58294;SDS011;45705;55.592;37.460;2022-10-22T13:52:33;11.85;;;5.10;;
58294;SDS011;45705;55.592;37.460;2022-10-22T13:55:24;13.00;;;4.80;;
58294;SDS011;45705;55.592;37.460;2022-10-22T14:00:19;10.48;;;5.32;;
58294;SDS011;45705;55.592;37.460;2022-10-22T14:02:47;9.05;;;5.45;;
58294;SDS011;45705;55.592;37.460;2022-10-22T14:05:16;10.48;;;4.90;;
58294;SDS011;45705;55.592;37.460;2022-10-22T14:07:43;7.00;;;4.75;;
58294;SDS011;45705;55.592;37.460;2022-10-22T14:10:20;10.25;;;5.70;;
58294;SDS011;45705;55.592;37.460;2022-10-22T14:12:47;13.70;;;6.93;;
58294;SDS011;45705;55.592;37.460;2022-10-22T14:15:14;9.60;;;5.38;;
58294;SDS011;45705;55.592;37.460;2022-10-22T14:17:45;12.57;;;6.35;;
58294;SDS011;45705;55.592;37.460;2022-10-22T14:20:23;18.77;;;6.13;;
58294;SDS011;45705;55.592;37.460;2022-10-22T14:22:52;13.27;;;5.80;;
58294;SDS011;45705;55.592;37.460;2022-10-22T14:25:20;9.70;;;5.20;;
58294;SDS011;45705;55.592;37.460;2022-10-22T14:27:47;8.75;;;5.80;;
58294;SDS011;45705;55.592;37.460;2022-10-22T14:30:14;8.18;;;5.53;;
58294;SDS011;45705;55.592;37.460;2022-10-22T14:32:41;11.07;;;6.88;;
58294;SDS011;45705;55.592;37.460;2022-10-22T14:35:10;12.25;;;6.50;;
58294;SDS011;45705;55.592;37.460;2022-10-22T14:37:37;13.13;;;6.40;;
58294;SDS011;45705;55.592;37.460;2022-10-22T14:40:03;14.63;;;6.15;;
58294;SDS011;45705;55.592;37.460;2022-10-22T14:42:29;17.15;;;6.68;;
58294;SDS011;45705;55.592;37.460;2022-10-22T14:45:05;12.55;;;6.38;;
58294;SDS011;45705;55.592;37.460;2022-10-22T14:47:31;12.38;;;6.22;;
58294;SDS011;45705;55.592;37.460;2022-10-22T14:49:57;11.10;;;5.97;;
58294;SDS011;45705;55.592;37.460;2022-10-22T14:52:23;14.38;;;6.47;;
58294;SDS011;45705;55.592;37.460;2022-10-22T14:54:49;12.10;;;6.60;;
58294;SDS011;45705;55.592;37.460;2022-10-22T14:57:14;15.50;;;7.53;;
58294;SDS011;45705;55.592;37.460;2022-10-22T14:59:41;21.27;;;8.95;;
58294;SDS011;45705;55.592;37.460;2022-10-22T15:02:09;12.52;;;7.88;;
58294;SDS011;45705;55.592;37.460;2022-10-22T15:04:38;21.58;;;9.13;;
58294;SDS011;45705;55.592;37.460;2022-10-22T15:07:04;12.23;;;8.30;;
58294;SDS011;45705;55.592;37.460;2022-10-22T15:09:30;17.08;;;9.10;;
58294;SDS011;45705;55.592;37.460;2022-10-22T15:11:55;16.02;;;7.60;;
58294;SDS011;45705;55.592;37.460;2022-10-22T15:14:21;14.95;;;7.38;;
58294;SDS011;45705;55.592;37.460;2022-10-22T15:16:47;16.38;;;7.63;;
58294;SDS011;45705;55.592;37.460;2022-10-22T15:19:12;14.68;;;7.70;;
58294;SDS011;45705;55.592;37.460;2022-10-22T15:21:38;12.77;;;7.07;;
58294;SDS011;45705;55.592;37.460;2022-10-22T15:24:04;16.00;;;7.60;;
58294;SDS011;45705;55.592;37.460;2022-10-22T15:26:30;10.68;;;6.78;;
58294;SDS011;45705;55.592;37.460;2022-10-22T15:28:56;12.98;;;6.95;;
58294;SDS011;45705;55.592;37.460;2022-10-22T15:34:26;9.85;;;6.35;;
58294;SDS011;45705;55.592;37.460;2022-10-22T15:36:58;14.73;;;7.28;;
58294;SDS011;45705;55.592;37.460;2022-10-22T15:39:25;16.45;;;8.15;;
58294;SDS011;45705;55.592;37.460;2022-10-22T15:41:52;18.02;;;10.15;;
58294;SDS011;45705;55.592;37.460;2022-10-22T15:44:20;17.75;;;10.60;;
58294;SDS011;45705;55.592;37.460;2022-10-22T15:46:47;20.17;;;11.27;;
58294;SDS011;45705;55.592;37.460;2022-10-22T15:49:15;13.15;;;8.73;;
58294;SDS011;45705;55.592;37.460;2022-10-22T15:51:41;16.20;;;8.18;;
58294;SDS011;45705;55.592;37.460;2022-10-22T15:54:09;17.10;;;8.63;;
58294;SDS011;45705;55.592;37.460;2022-10-22T15:56:38;15.77;;;8.02;;
58294;SDS011;45705;55.592;37.460;2022-10-22T15:59:03;14.10;;;7.70;;
58294;SDS011;45705;55.592;37.460;2022-10-22T16:01:30;16.75;;;7.80;;
58294;SDS011;45705;55.592;37.460;2022-10-22T16:03:57;14.43;;;7.75;;
58294;SDS011;45705;55.592;37.460;2022-10-22T16:09:01;13.80;;;8.35;;
58294;SDS011;45705;55.592;37.460;2022-10-22T16:11:28;13.15;;;8.18;;
58294;SDS011;45705;55.592;37.460;2022-10-22T16:13:54;15.18;;;7.93;;
58294;SDS011;45705;55.592;37.460;2022-10-22T16:16:22;14.30;;;8.32;;
58294;SDS011;45705;55.592;37.460;2022-10-22T16:18:49;15.45;;;8.77;;
58294;SDS011;45705;55.592;37.460;2022-10-22T16:21:16;18.00;;;8.15;;
58294;SDS011;45705;55.592;37.460;2022-10-22T16:23:42;13.02;;;8.07;;
58294;SDS011;45705;55.592;37.460;2022-10-22T16:26:08;16.77;;;8.07;;
58294;SDS011;45705;55.592;37.460;2022-10-22T16:28:34;14.52;;;8.50;;
58294;SDS011;45705;55.592;37.460;2022-10-22T16:31:03;17.73;;;9.50;;
58294;SDS011;45705;55.592;37.460;2022-10-22T16:33:33;20.77;;;9.80;;
58294;SDS011;45705;55.592;37.460;2022-10-22T16:36:00;15.43;;;8.70;;
58294;SDS011;45705;55.592;37.460;2022-10-22T16:38:26;19.52;;;9.18;;
58294;SDS011;45705;55.592;37.460;2022-10-22T16:40:53;13.40;;;8.75;;
58294;SDS011;45705;55.592;37.460;2022-10-22T16:43:18;16.63;;;8.70;;
58294;SDS011;45705;55.592;37.460;2022-10-22T16:45:50;14.30;;;8.18;;
58294;SDS011;45705;55.592;37.460;2022-10-22T16:48:16;16.15;;;8.82;;